Divinopolis Airport


Codes: SNDV/DIQ
Name: Divinopolis Airport
City: Divinopolis
Country: Brazil
Elevation: 2608 ft.

Photos at Divinopolis Airport


   Photos courtesy of SpottingLog. You can add your own sightings and photos by signing up for a free trial today.



No photos found.

Weather at Divinopolis Airport


Time (UTC)DescriptionTempratureWindCloud coverageVisibilityPressureHumidity
17-Jun-2024 06:00Clear Sky14°C2 mph, SE1%10000m1020hPa71%
17-Jun-2024 09:00Clear Sky13°C2 mph, S3%10000m1020hPa82%
17-Jun-2024 12:00Clear Sky20°C2 mph, SE3%10000m1021hPa60%
17-Jun-2024 15:00Clear Sky26°C2 mph, NW0%10000m1018hPa35%
17-Jun-2024 18:00Clear Sky27°C4 mph, NW0%10000m1015hPa28%
17-Jun-2024 21:00Clear Sky20°C0 mph, NE0%10000m1016hPa44%
18-Jun-2024 00:00Clear Sky17°C2 mph, S0%10000m1017hPa53%
18-Jun-2024 03:00Clear Sky15°C2 mph, S1%10000m1018hPa59%
18-Jun-2024 06:00Clear Sky14°C0 mph, SE2%10000m1018hPa66%
18-Jun-2024 09:00Clear Sky13°C2 mph, SE0%10000m1019hPa74%
18-Jun-2024 12:00Clear Sky21°C4 mph, NE0%10000m1020hPa53%
18-Jun-2024 15:00Clear Sky27°C7 mph, N0%10000m1017hPa35%
18-Jun-2024 18:00Clear Sky28°C4 mph, N0%10000m1014hPa29%
18-Jun-2024 21:00Clear Sky21°C2 mph, N0%10000m1015hPa45%
19-Jun-2024 00:00Clear Sky18°C2 mph, SW0%10000m1017hPa55%
19-Jun-2024 03:00Clear Sky16°C2 mph, SE0%10000m1018hPa63%
19-Jun-2024 06:00Clear Sky15°C4 mph, SE0%10000m1018hPa68%
19-Jun-2024 09:00Clear Sky14°C2 mph, S0%10000m1019hPa73%
19-Jun-2024 12:00Clear Sky22°C2 mph, NE0%10000m1020hPa47%
19-Jun-2024 15:00Clear Sky28°C7 mph, N0%10000m1018hPa31%
19-Jun-2024 18:00Clear Sky29°C7 mph, NW0%10000m1014hPa27%
19-Jun-2024 21:00Clear Sky22°C2 mph, NW0%10000m1015hPa41%
20-Jun-2024 00:00Clear Sky19°C2 mph, S0%10000m1018hPa50%
20-Jun-2024 03:00Clear Sky16°C2 mph, E0%10000m1018hPa59%
20-Jun-2024 06:00Clear Sky15°C4 mph, S0%10000m1018hPa65%
20-Jun-2024 09:00Clear Sky14°C2 mph, S0%10000m1019hPa70%
20-Jun-2024 12:00Clear Sky22°C2 mph, SE1%10000m1020hPa44%
20-Jun-2024 15:00Clear Sky30°C2 mph, NW2%10000m1017hPa27%
20-Jun-2024 18:00Clear Sky30°C7 mph, SW1%10000m1014hPa24%
20-Jun-2024 21:00Scattered Clouds23°C4 mph, SW33%10000m1016hPa34%
21-Jun-2024 00:00Scattered Clouds21°C2 mph, SE39%10000m1018hPa40%
21-Jun-2024 03:00Broken Clouds20°C2 mph, SW82%10000m1018hPa45%
21-Jun-2024 06:00Scattered Clouds17°C2 mph, SE41%10000m1017hPa60%
21-Jun-2024 09:00Clear Sky15°C2 mph, SE0%10000m1018hPa70%
21-Jun-2024 12:00Clear Sky23°C4 mph, E0%10000m1019hPa47%
21-Jun-2024 15:00Scattered Clouds29°C7 mph, NE26%10000m1016hPa29%
21-Jun-2024 18:00Scattered Clouds30°C7 mph, NE48%10000m1014hPa26%
21-Jun-2024 21:00Broken Clouds24°C7 mph, NE51%10000m1016hPa38%
22-Jun-2024 00:00Scattered Clouds21°C4 mph, SE47%10000m1017hPa52%
22-Jun-2024 03:00Few Clouds18°C2 mph, NE24%10000m1018hPa64%